sensor_id;sensor_type;location;lat;lon;timestamp;temperature;humidity
20125;DHT22;10223;50.862;4.360;2023-09-30T00:01:40;15.50;99.90
20125;DHT22;10223;50.862;4.360;2023-09-30T00:04:07;15.50;99.90
20125;DHT22;10223;50.862;4.360;2023-09-30T00:06:34;15.40;99.90
20125;DHT22;10223;50.862;4.360;2023-09-30T00:09:02;15.20;99.90
20125;DHT22;10223;50.862;4.360;2023-09-30T00:11:30;15.10;99.90
20125;DHT22;10223;50.862;4.360;2023-09-30T00:13:57;15.10;99.90
20125;DHT22;10223;50.862;4.360;2023-09-30T00:16:24;14.90;99.90
20125;DHT22;10223;50.862;4.360;2023-09-30T00:18:51;14.90;99.90
20125;DHT22;10223;50.862;4.360;2023-09-30T00:21:19;14.90;99.90
20125;DHT22;10223;50.862;4.360;2023-09-30T00:23:45;14.80;99.90
20125;DHT22;10223;50.862;4.360;2023-09-30T00:26:13;14.70;99.90
20125;DHT22;10223;50.862;4.360;2023-09-30T00:28:40;14.70;99.90
20125;DHT22;10223;50.862;4.360;2023-09-30T00:31:07;14.70;99.90
20125;DHT22;10223;50.862;4.360;2023-09-30T00:33:35;14.70;99.90
20125;DHT22;10223;50.862;4.360;2023-09-30T00:36:06;14.60;99.90
20125;DHT22;10223;50.862;4.360;2023-09-30T00:38:33;14.60;99.90
20125;DHT22;10223;50.862;4.360;2023-09-30T00:41:00;14.60;99.90
20125;DHT22;10223;50.862;4.360;2023-09-30T00:43:28;14.70;99.90
20125;DHT22;10223;50.862;4.360;2023-09-30T00:46:03;14.70;99.90
20125;DHT22;10223;50.862;4.360;2023-09-30T00:48:33;14.70;99.90
20125;DHT22;10223;50.862;4.360;2023-09-30T00:51:00;14.80;99.90
20125;DHT22;10223;50.862;4.360;2023-09-30T00:53:27;14.80;99.90
20125;DHT22;10223;50.862;4.360;2023-09-30T00:55:55;14.80;99.90
20125;DHT22;10223;50.862;4.360;2023-09-30T00:58:23;14.80;99.90
20125;DHT22;10223;50.862;4.360;2023-09-30T01:00:56;14.70;99.90
20125;DHT22;10223;50.862;4.360;2023-09-30T01:03:23;14.70;99.90
20125;DHT22;10223;50.862;4.360;2023-09-30T01:05:50;14.80;99.90
20125;DHT22;10223;50.862;4.360;2023-09-30T01:08:17;14.70;99.90
20125;DHT22;10223;50.862;4.360;2023-09-30T01:10:45;14.60;99.90
20125;DHT22;10223;50.862;4.360;2023-09-30T01:13:12;14.60;99.90
20125;DHT22;10223;50.862;4.360;2023-09-30T01:15:39;14.60;99.90
20125;DHT22;10223;50.862;4.360;2023-09-30T01:18:07;14.80;99.90
20125;DHT22;10223;50.862;4.360;2023-09-30T01:20:34;14.70;99.90
20125;DHT22;10223;50.862;4.360;2023-09-30T01:23:03;15.00;99.90
20125;DHT22;10223;50.862;4.360;2023-09-30T01:25:30;14.80;99.90
20125;DHT22;10223;50.862;4.360;2023-09-30T01:27:59;14.70;99.90
20125;DHT22;10223;50.862;4.360;2023-09-30T01:30:31;14.70;99.90
20125;DHT22;10223;50.862;4.360;2023-09-30T01:32:58;14.60;99.90
20125;DHT22;10223;50.862;4.360;2023-09-30T01:35:25;14.70;99.90
20125;DHT22;10223;50.862;4.360;2023-09-30T01:37:52;14.50;99.90
20125;DHT22;10223;50.862;4.360;2023-09-30T01:40:19;14.60;99.90
20125;DHT22;10223;50.862;4.360;2023-09-30T01:42:46;14.60;99.90
20125;DHT22;10223;50.862;4.360;2023-09-30T01:45:13;14.60;99.90
20125;DHT22;10223;50.862;4.360;2023-09-30T01:47:40;14.60;99.90
20125;DHT22;10223;50.862;4.360;2023-09-30T01:50:08;14.60;99.90
20125;DHT22;10223;50.862;4.360;2023-09-30T01:52:35;14.40;99.90
20125;DHT22;10223;50.862;4.360;2023-09-30T01:55:01;14.60;99.90
20125;DHT22;10223;50.862;4.360;2023-09-30T01:57:30;14.40;99.90
20125;DHT22;10223;50.862;4.360;2023-09-30T01:59:56;14.40;99.90
20125;DHT22;10223;50.862;4.360;2023-09-30T02:02:23;14.50;99.90
20125;DHT22;10223;50.862;4.360;2023-09-30T02:04:51;14.50;99.90
20125;DHT22;10223;50.862;4.360;2023-09-30T02:07:19;14.40;99.90
20125;DHT22;10223;50.862;4.360;2023-09-30T02:09:45;14.20;99.90
20125;DHT22;10223;50.862;4.360;2023-09-30T02:12:12;14.10;99.90
20125;DHT22;10223;50.862;4.360;2023-09-30T02:14:42;14.00;99.90
20125;DHT22;10223;50.862;4.360;2023-09-30T02:17:09;14.10;99.90
20125;DHT22;10223;50.862;4.360;2023-09-30T02:19:36;14.10;99.90
20125;DHT22;10223;50.862;4.360;2023-09-30T02:22:03;14.10;99.90
20125;DHT22;10223;50.862;4.360;2023-09-30T02:24:30;14.10;99.90
20125;DHT22;10223;50.862;4.360;2023-09-30T02:26:57;14.10;99.90
20125;DHT22;10223;50.862;4.360;2023-09-30T02:29:24;14.10;99.90
20125;DHT22;10223;50.862;4.360;2023-09-30T02:31:53;14.10;99.90
20125;DHT22;10223;50.862;4.360;2023-09-30T02:34:20;14.10;99.90
20125;DHT22;10223;50.862;4.360;2023-09-30T02:36:47;14.10;99.90
20125;DHT22;10223;50.862;4.360;2023-09-30T02:39:14;14.10;99.90
20125;DHT22;10223;50.862;4.360;2023-09-30T02:41:43;14.20;99.90
20125;DHT22;10223;50.862;4.360;2023-09-30T02:44:10;14.10;99.90
20125;DHT22;10223;50.862;4.360;2023-09-30T02:46:38;14.10;99.90
20125;DHT22;10223;50.862;4.360;2023-09-30T02:49:06;14.10;99.90
20125;DHT22;10223;50.862;4.360;2023-09-30T02:51:33;14.10;99.90
20125;DHT22;10223;50.862;4.360;2023-09-30T02:54:00;14.10;99.90
20125;DHT22;10223;50.862;4.360;2023-09-30T02:56:27;14.20;99.90
20125;DHT22;10223;50.862;4.360;2023-09-30T02:58:56;14.20;99.90
20125;DHT22;10223;50.862;4.360;2023-09-30T03:01:23;14.00;99.90
20125;DHT22;10223;50.862;4.360;2023-09-30T03:03:50;13.90;99.90
20125;DHT22;10223;50.862;4.360;2023-09-30T03:06:18;13.80;99.90
20125;DHT22;10223;50.862;4.360;2023-09-30T03:08:45;13.80;99.90
20125;DHT22;10223;50.862;4.360;2023-09-30T03:11:12;13.80;99.90
20125;DHT22;10223;50.862;4.360;2023-09-30T03:13:39;13.70;99.90
20125;DHT22;10223;50.862;4.360;2023-09-30T03:16:07;13.70;99.90
20125;DHT22;10223;50.862;4.360;2023-09-30T03:18:34;13.80;99.90
20125;DHT22;10223;50.862;4.360;2023-09-30T03:21:02;13.80;99.90
20125;DHT22;10223;50.862;4.360;2023-09-30T03:23:35;13.70;99.90
20125;DHT22;10223;50.862;4.360;2023-09-30T03:26:04;13.70;99.90
20125;DHT22;10223;50.862;4.360;2023-09-30T03:28:35;13.70;99.90
20125;DHT22;10223;50.862;4.360;2023-09-30T03:31:02;13.70;99.90
20125;DHT22;10223;50.862;4.360;2023-09-30T03:33:30;13.80;99.90
20125;DHT22;10223;50.862;4.360;2023-09-30T03:35:57;13.90;99.90
20125;DHT22;10223;50.862;4.360;2023-09-30T03:38:25;13.90;99.90
20125;DHT22;10223;50.862;4.360;2023-09-30T03:40:53;13.90;99.90
20125;DHT22;10223;50.862;4.360;2023-09-30T03:43:20;13.90;99.90
20125;DHT22;10223;50.862;4.360;2023-09-30T03:45:48;13.90;99.90
20125;DHT22;10223;50.862;4.360;2023-09-30T03:48:15;13.90;99.90
20125;DHT22;10223;50.862;4.360;2023-09-30T03:50:44;13.80;99.90
20125;DHT22;10223;50.862;4.360;2023-09-30T03:53:11;13.90;99.90
20125;DHT22;10223;50.862;4.360;2023-09-30T03:55:38;13.80;99.90
20125;DHT22;10223;50.862;4.360;2023-09-30T03:58:06;13.70;99.90
20125;DHT22;10223;50.862;4.360;2023-09-30T04:00:33;13.60;99.90
20125;DHT22;10223;50.862;4.360;2023-09-30T04:03:01;13.60;99.90
20125;DHT22;10223;50.862;4.360;2023-09-30T04:05:28;13.70;99.90
20125;DHT22;10223;50.862;4.360;2023-09-30T04:07:57;13.70;99.90
20125;DHT22;10223;50.862;4.360;2023-09-30T04:10:24;13.60;99.90
20125;DHT22;10223;50.862;4.360;2023-09-30T04:12:51;13.60;99.90
20125;DHT22;10223;50.862;4.360;2023-09-30T04:15:20;13.60;99.90
20125;DHT22;10223;50.862;4.360;2023-09-30T04:17:47;13.60;99.90
20125;DHT22;10223;50.862;4.360;2023-09-30T04:20:14;13.60;99.90
20125;DHT22;10223;50.862;4.360;2023-09-30T04:22:46;13.70;99.90
20125;DHT22;10223;50.862;4.360;2023-09-30T04:25:14;13.70;99.90
20125;DHT22;10223;50.862;4.360;2023-09-30T04:27:42;13.60;99.90
20125;DHT22;10223;50.862;4.360;2023-09-30T04:30:10;13.80;99.90
20125;DHT22;10223;50.862;4.360;2023-09-30T04:32:38;13.60;99.90
20125;DHT22;10223;50.862;4.360;2023-09-30T04:35:06;13.60;99.90
20125;DHT22;10223;50.862;4.360;2023-09-30T04:37:33;13.60;99.90
20125;DHT22;10223;50.862;4.360;2023-09-30T04:40:02;13.60;99.90
20125;DHT22;10223;50.862;4.360;2023-09-30T04:42:33;13.60;99.90
20125;DHT22;10223;50.862;4.360;2023-09-30T04:45:02;13.60;99.90
20125;DHT22;10223;50.862;4.360;2023-09-30T04:47:30;13.60;99.90
20125;DHT22;10223;50.862;4.360;2023-09-30T04:49:59;13.60;99.90
20125;DHT22;10223;50.862;4.360;2023-09-30T04:52:30;13.60;99.90
20125;DHT22;10223;50.862;4.360;2023-09-30T04:54:56;13.60;99.90
20125;DHT22;10223;50.862;4.360;2023-09-30T04:57:23;13.50;99.90
20125;DHT22;10223;50.862;4.360;2023-09-30T04:59:50;13.50;99.90
20125;DHT22;10223;50.862;4.360;2023-09-30T05:02:17;13.50;99.90
20125;DHT22;10223;50.862;4.360;2023-09-30T05:04:44;13.50;99.90
20125;DHT22;10223;50.862;4.360;2023-09-30T05:07:12;13.60;99.90
20125;DHT22;10223;50.862;4.360;2023-09-30T05:09:39;13.50;99.90
20125;DHT22;10223;50.862;4.360;2023-09-30T05:12:06;13.50;99.90
20125;DHT22;10223;50.862;4.360;2023-09-30T05:14:34;13.60;99.90
20125;DHT22;10223;50.862;4.360;2023-09-30T05:17:02;13.60;99.90
20125;DHT22;10223;50.862;4.360;2023-09-30T05:19:30;13.60;99.90
20125;DHT22;10223;50.862;4.360;2023-09-30T05:21:57;13.60;99.90
20125;DHT22;10223;50.862;4.360;2023-09-30T05:24:28;13.60;99.90
20125;DHT22;10223;50.862;4.360;2023-09-30T05:26:54;13.60;99.90
20125;DHT22;10223;50.862;4.360;2023-09-30T05:29:21;13.50;99.90
20125;DHT22;10223;50.862;4.360;2023-09-30T05:31:48;13.40;99.90
20125;DHT22;10223;50.862;4.360;2023-09-30T05:34:15;13.40;99.90
20125;DHT22;10223;50.862;4.360;2023-09-30T05:36:42;13.50;99.90
20125;DHT22;10223;50.862;4.360;2023-09-30T05:39:09;13.50;99.90
20125;DHT22;10223;50.862;4.360;2023-09-30T05:41:38;13.40;99.90
20125;DHT22;10223;50.862;4.360;2023-09-30T05:44:06;13.50;99.90
20125;DHT22;10223;50.862;4.360;2023-09-30T05:46:33;13.60;99.90
20125;DHT22;10223;50.862;4.360;2023-09-30T05:49:00;13.60;99.90
20125;DHT22;10223;50.862;4.360;2023-09-30T05:51:27;13.40;99.90
20125;DHT22;10223;50.862;4.360;2023-09-30T05:53:53;13.30;99.90
20125;DHT22;10223;50.862;4.360;2023-09-30T05:56:20;13.50;99.90
20125;DHT22;10223;50.862;4.360;2023-09-30T05:58:48;13.50;99.90
20125;DHT22;10223;50.862;4.360;2023-09-30T06:01:15;13.50;99.90
20125;DHT22;10223;50.862;4.360;2023-09-30T06:03:45;13.50;99.90
20125;DHT22;10223;50.862;4.360;2023-09-30T06:06:13;13.60;99.90
20125;DHT22;10223;50.862;4.360;2023-09-30T06:08:42;13.70;99.90
20125;DHT22;10223;50.862;4.360;2023-09-30T06:11:16;13.70;99.90
20125;DHT22;10223;50.862;4.360;2023-09-30T06:13:43;13.70;99.90
20125;DHT22;10223;50.862;4.360;2023-09-30T06:16:12;13.70;99.90
20125;DHT22;10223;50.862;4.360;2023-09-30T06:18:39;13.70;99.90
20125;DHT22;10223;50.862;4.360;2023-09-30T06:21:05;13.60;99.90
20125;DHT22;10223;50.862;4.360;2023-09-30T06:23:32;13.60;99.90
20125;DHT22;10223;50.862;4.360;2023-09-30T06:25:59;13.60;99.90
20125;DHT22;10223;50.862;4.360;2023-09-30T06:28:27;13.70;99.90
20125;DHT22;10223;50.862;4.360;2023-09-30T06:30:57;13.90;99.90
20125;DHT22;10223;50.862;4.360;2023-09-30T06:33:25;13.90;99.90
20125;DHT22;10223;50.862;4.360;2023-09-30T06:35:54;13.90;99.90
20125;DHT22;10223;50.862;4.360;2023-09-30T06:38:21;13.80;99.90
20125;DHT22;10223;50.862;4.360;2023-09-30T06:40:48;13.70;99.90
20125;DHT22;10223;50.862;4.360;2023-09-30T06:43:15;13.70;99.90
20125;DHT22;10223;50.862;4.360;2023-09-30T06:45:42;13.70;99.90
20125;DHT22;10223;50.862;4.360;2023-09-30T06:48:09;13.60;99.90
20125;DHT22;10223;50.862;4.360;2023-09-30T06:50:40;13.70;99.90
20125;DHT22;10223;50.862;4.360;2023-09-30T06:53:09;13.50;99.90
20125;DHT22;10223;50.862;4.360;2023-09-30T06:55:37;13.50;99.90
20125;DHT22;10223;50.862;4.360;2023-09-30T06:58:05;13.60;99.90
20125;DHT22;10223;50.862;4.360;2023-09-30T07:00:33;13.50;99.90
20125;DHT22;10223;50.862;4.360;2023-09-30T07:03:00;13.70;99.90
20125;DHT22;10223;50.862;4.360;2023-09-30T07:05:27;13.80;99.90
20125;DHT22;10223;50.862;4.360;2023-09-30T07:07:56;13.80;99.90
20125;DHT22;10223;50.862;4.360;2023-09-30T07:10:24;13.80;99.90
20125;DHT22;10223;50.862;4.360;2023-09-30T07:12:50;14.00;99.90
20125;DHT22;10223;50.862;4.360;2023-09-30T07:15:18;14.00;99.90
20125;DHT22;10223;50.862;4.360;2023-09-30T07:17:44;14.20;99.90
20125;DHT22;10223;50.862;4.360;2023-09-30T07:20:13;14.20;99.90
20125;DHT22;10223;50.862;4.360;2023-09-30T07:22:40;14.50;99.90
20125;DHT22;10223;50.862;4.360;2023-09-30T07:25:09;14.80;99.90
20125;DHT22;10223;50.862;4.360;2023-09-30T07:27:36;15.10;99.90
20125;DHT22;10223;50.862;4.360;2023-09-30T07:30:03;15.30;99.90
20125;DHT22;10223;50.862;4.360;2023-09-30T07:32:32;15.20;99.90
20125;DHT22;10223;50.862;4.360;2023-09-30T07:34:59;15.40;99.90
20125;DHT22;10223;50.862;4.360;2023-09-30T07:37:25;15.40;99.90
20125;DHT22;10223;50.862;4.360;2023-09-30T07:39:52;15.70;99.90
20125;DHT22;10223;50.862;4.360;2023-09-30T07:42:20;15.90;99.90
20125;DHT22;10223;50.862;4.360;2023-09-30T07:44:48;16.20;99.90
20125;DHT22;10223;50.862;4.360;2023-09-30T07:47:15;16.30;99.90
20125;DHT22;10223;50.862;4.360;2023-09-30T07:49:41;16.80;99.90
20125;DHT22;10223;50.862;4.360;2023-09-30T07:52:07;17.20;99.90
20125;DHT22;10223;50.862;4.360;2023-09-30T07:54:35;17.00;99.90
20125;DHT22;10223;50.862;4.360;2023-09-30T07:57:02;17.10;99.90
20125;DHT22;10223;50.862;4.360;2023-09-30T07:59:30;17.30;99.90
20125;DHT22;10223;50.862;4.360;2023-09-30T08:01:58;17.20;99.90
20125;DHT22;10223;50.862;4.360;2023-09-30T08:04:25;17.30;99.90
20125;DHT22;10223;50.862;4.360;2023-09-30T08:06:52;17.00;99.90
20125;DHT22;10223;50.862;4.360;2023-09-30T08:09:19;17.30;99.90
20125;DHT22;10223;50.862;4.360;2023-09-30T08:11:48;17.50;99.90
20125;DHT22;10223;50.862;4.360;2023-09-30T08:14:15;18.00;99.90
20125;DHT22;10223;50.862;4.360;2023-09-30T08:16:43;17.70;99.90
20125;DHT22;10223;50.862;4.360;2023-09-30T08:19:10;17.90;99.90
20125;DHT22;10223;50.862;4.360;2023-09-30T08:21:37;17.90;99.90
20125;DHT22;10223;50.862;4.360;2023-09-30T08:24:05;18.20;99.90
20125;DHT22;10223;50.862;4.360;2023-09-30T08:26:31;17.90;99.90
20125;DHT22;10223;50.862;4.360;2023-09-30T08:28:58;17.80;99.90
20125;DHT22;10223;50.862;4.360;2023-09-30T08:31:25;17.90;99.90
20125;DHT22;10223;50.862;4.360;2023-09-30T08:33:53;18.00;99.90
20125;DHT22;10223;50.862;4.360;2023-09-30T08:36:20;18.20;99.90
20125;DHT22;10223;50.862;4.360;2023-09-30T08:38:47;18.60;99.90
20125;DHT22;10223;50.862;4.360;2023-09-30T08:41:24;18.90;99.90
20125;DHT22;10223;50.862;4.360;2023-09-30T08:43:59;18.80;99.90
20125;DHT22;10223;50.862;4.360;2023-09-30T08:46:29;18.60;99.90
20125;DHT22;10223;50.862;4.360;2023-09-30T08:49:01;18.30;99.90
20125;DHT22;10223;50.862;4.360;2023-09-30T08:51:29;18.10;99.90
20125;DHT22;10223;50.862;4.360;2023-09-30T08:53:56;18.40;99.90
20125;DHT22;10223;50.862;4.360;2023-09-30T08:56:26;18.70;99.90
20125;DHT22;10223;50.862;4.360;2023-09-30T08:58:56;19.10;99.90
20125;DHT22;10223;50.862;4.360;2023-09-30T09:01:24;19.20;99.90
20125;DHT22;10223;50.862;4.360;2023-09-30T09:03:50;19.20;99.90
20125;DHT22;10223;50.862;4.360;2023-09-30T09:06:20;18.80;99.90
20125;DHT22;10223;50.862;4.360;2023-09-30T09:08:47;19.00;99.90
20125;DHT22;10223;50.862;4.360;2023-09-30T09:11:15;19.00;99.90
20125;DHT22;10223;50.862;4.360;2023-09-30T09:13:47;18.70;99.90
20125;DHT22;10223;50.862;4.360;2023-09-30T09:16:15;19.00;99.90
20125;DHT22;10223;50.862;4.360;2023-09-30T09:18:43;18.90;99.90
20125;DHT22;10223;50.862;4.360;2023-09-30T09:21:14;19.30;99.90
20125;DHT22;10223;50.862;4.360;2023-09-30T09:23:44;19.40;99.90
20125;DHT22;10223;50.862;4.360;2023-09-30T09:26:11;19.30;99.90
20125;DHT22;10223;50.862;4.360;2023-09-30T09:28:39;19.20;99.90
20125;DHT22;10223;50.862;4.360;2023-09-30T09:31:21;19.60;99.90
20125;DHT22;10223;50.862;4.360;2023-09-30T09:33:49;20.00;99.90
20125;DHT22;10223;50.862;4.360;2023-09-30T09:36:17;20.00;99.90
20125;DHT22;10223;50.862;4.360;2023-09-30T09:38:47;20.40;99.90
20125;DHT22;10223;50.862;4.360;2023-09-30T09:41:15;20.70;99.90
20125;DHT22;10223;50.862;4.360;2023-09-30T09:43:43;20.60;99.90
20125;DHT22;10223;50.862;4.360;2023-09-30T09:46:10;20.60;99.90
20125;DHT22;10223;50.862;4.360;2023-09-30T09:48:37;20.70;99.90
20125;DHT22;10223;50.862;4.360;2023-09-30T09:51:04;20.50;99.90
20125;DHT22;10223;50.862;4.360;2023-09-30T09:53:35;20.80;99.90
20125;DHT22;10223;50.862;4.360;2023-09-30T09:56:04;20.80;99.90
20125;DHT22;10223;50.862;4.360;2023-09-30T09:58:33;20.60;99.90
20125;DHT22;10223;50.862;4.360;2023-09-30T10:01:01;20.80;99.90
20125;DHT22;10223;50.862;4.360;2023-09-30T10:03:28;21.00;99.90
20125;DHT22;10223;50.862;4.360;2023-09-30T10:05:56;20.70;99.90
20125;DHT22;10223;50.862;4.360;2023-09-30T10:08:30;20.80;99.90
20125;DHT22;10223;50.862;4.360;2023-09-30T10:10:58;20.80;99.90
20125;DHT22;10223;50.862;4.360;2023-09-30T10:13:51;20.90;99.90
20125;DHT22;10223;50.862;4.360;2023-09-30T10:16:47;20.60;99.90
20125;DHT22;10223;50.862;4.360;2023-09-30T10:19:15;20.60;99.90
20125;DHT22;10223;50.862;4.360;2023-09-30T10:24:45;20.90;99.90
20125;DHT22;10223;50.862;4.360;2023-09-30T10:27:31;21.30;99.90
20125;DHT22;10223;50.862;4.360;2023-09-30T10:30:07;21.30;99.90
20125;DHT22;10223;50.862;4.360;2023-09-30T10:33:10;21.60;99.90
20125;DHT22;10223;50.862;4.360;2023-09-30T10:35:45;21.20;99.90
20125;DHT22;10223;50.862;4.360;2023-09-30T10:38:37;21.00;99.90
20125;DHT22;10223;50.862;4.360;2023-09-30T10:41:06;20.60;99.90
20125;DHT22;10223;50.862;4.360;2023-09-30T10:43:34;20.70;99.90
20125;DHT22;10223;50.862;4.360;2023-09-30T10:46:03;20.80;99.90
20125;DHT22;10223;50.862;4.360;2023-09-30T10:48:36;20.80;99.90
20125;DHT22;10223;50.862;4.360;2023-09-30T10:51:16;21.10;99.90
20125;DHT22;10223;50.862;4.360;2023-09-30T10:53:50;20.90;99.90
20125;DHT22;10223;50.862;4.360;2023-09-30T10:56:18;21.30;99.90
20125;DHT22;10223;50.862;4.360;2023-09-30T10:58:47;21.30;99.90
20125;DHT22;10223;50.862;4.360;2023-09-30T11:01:17;21.30;99.90
20125;DHT22;10223;50.862;4.360;2023-09-30T11:03:45;21.00;99.90
20125;DHT22;10223;50.862;4.360;2023-09-30T11:06:13;21.20;99.90
20125;DHT22;10223;50.862;4.360;2023-09-30T11:08:45;21.20;99.90
20125;DHT22;10223;50.862;4.360;2023-09-30T11:11:13;21.60;99.90
20125;DHT22;10223;50.862;4.360;2023-09-30T11:13:40;21.70;99.90
20125;DHT22;10223;50.862;4.360;2023-09-30T11:16:07;22.30;99.90
20125;DHT22;10223;50.862;4.360;2023-09-30T11:18:36;22.60;99.90
20125;DHT22;10223;50.862;4.360;2023-09-30T11:21:05;22.40;99.90
20125;DHT22;10223;50.862;4.360;2023-09-30T11:23:33;21.70;99.90
20125;DHT22;10223;50.862;4.360;2023-09-30T11:26:01;21.50;99.90
20125;DHT22;10223;50.862;4.360;2023-09-30T11:28:36;20.70;99.90
20125;DHT22;10223;50.862;4.360;2023-09-30T11:31:08;20.80;99.90
20125;DHT22;10223;50.862;4.360;2023-09-30T11:33:49;21.10;99.90
20125;DHT22;10223;50.862;4.360;2023-09-30T11:36:18;21.50;99.90
20125;DHT22;10223;50.862;4.360;2023-09-30T11:38:45;21.60;99.90
20125;DHT22;10223;50.862;4.360;2023-09-30T11:41:13;21.90;99.90
20125;DHT22;10223;50.862;4.360;2023-09-30T11:43:58;22.50;99.90
20125;DHT22;10223;50.862;4.360;2023-09-30T11:46:26;22.90;99.90
20125;DHT22;10223;50.862;4.360;2023-09-30T11:48:58;23.00;99.90
20125;DHT22;10223;50.862;4.360;2023-09-30T11:51:26;23.10;99.90
20125;DHT22;10223;50.862;4.360;2023-09-30T11:53:53;22.40;99.90
20125;DHT22;10223;50.862;4.360;2023-09-30T11:56:21;21.90;99.90
20125;DHT22;10223;50.862;4.360;2023-09-30T11:58:53;21.60;99.90
20125;DHT22;10223;50.862;4.360;2023-09-30T12:01:20;21.40;99.90
20125;DHT22;10223;50.862;4.360;2023-09-30T12:03:47;21.80;99.90
20125;DHT22;10223;50.862;4.360;2023-09-30T12:06:15;21.90;99.90
20125;DHT22;10223;50.862;4.360;2023-09-30T12:08:42;22.20;99.90
20125;DHT22;10223;50.862;4.360;2023-09-30T12:11:10;22.60;99.90
20125;DHT22;10223;50.862;4.360;2023-09-30T12:13:38;23.00;99.90
20125;DHT22;10223;50.862;4.360;2023-09-30T12:16:05;23.50;99.90
20125;DHT22;10223;50.862;4.360;2023-09-30T12:18:32;23.80;99.90
20125;DHT22;10223;50.862;4.360;2023-09-30T12:20:59;23.50;99.90
20125;DHT22;10223;50.862;4.360;2023-09-30T12:23:27;23.80;99.90
20125;DHT22;10223;50.862;4.360;2023-09-30T12:25:54;23.60;99.90
20125;DHT22;10223;50.862;4.360;2023-09-30T12:28:21;23.70;99.90
20125;DHT22;10223;50.862;4.360;2023-09-30T12:30:48;23.90;99.90
20125;DHT22;10223;50.862;4.360;2023-09-30T12:33:15;24.20;99.90
20125;DHT22;10223;50.862;4.360;2023-09-30T12:35:41;24.60;99.90
20125;DHT22;10223;50.862;4.360;2023-09-30T12:38:08;24.50;99.90
20125;DHT22;10223;50.862;4.360;2023-09-30T12:40:37;24.90;99.90
20125;DHT22;10223;50.862;4.360;2023-09-30T12:43:04;24.10;99.90
20125;DHT22;10223;50.862;4.360;2023-09-30T12:45:32;23.90;99.90
20125;DHT22;10223;50.862;4.360;2023-09-30T12:47:59;23.90;99.90
20125;DHT22;10223;50.862;4.360;2023-09-30T12:50:26;24.40;99.90
20125;DHT22;10223;50.862;4.360;2023-09-30T12:52:52;24.90;99.90
20125;DHT22;10223;50.862;4.360;2023-09-30T12:55:19;25.40;99.90
20125;DHT22;10223;50.862;4.360;2023-09-30T12:57:47;25.40;99.90
20125;DHT22;10223;50.862;4.360;2023-09-30T13:00:15;26.00;99.90
20125;DHT22;10223;50.862;4.360;2023-09-30T13:02:44;26.00;99.90
20125;DHT22;10223;50.862;4.360;2023-09-30T13:05:11;25.40;99.90
20125;DHT22;10223;50.862;4.360;2023-09-30T13:07:38;25.30;99.90
20125;DHT22;10223;50.862;4.360;2023-09-30T13:10:06;24.90;99.90
20125;DHT22;10223;50.862;4.360;2023-09-30T13:12:33;25.90;99.90
20125;DHT22;10223;50.862;4.360;2023-09-30T13:15:02;26.30;99.90
20125;DHT22;10223;50.862;4.360;2023-09-30T13:17:29;26.40;99.90
20125;DHT22;10223;50.862;4.360;2023-09-30T13:19:57;26.80;99.90
20125;DHT22;10223;50.862;4.360;2023-09-30T13:22:24;26.60;99.90
20125;DHT22;10223;50.862;4.360;2023-09-30T13:24:51;26.10;99.90
20125;DHT22;10223;50.862;4.360;2023-09-30T13:27:18;26.80;99.90
20125;DHT22;10223;50.862;4.360;2023-09-30T13:29:46;27.10;99.90
20125;DHT22;10223;50.862;4.360;2023-09-30T13:32:15;26.80;99.90
20125;DHT22;10223;50.862;4.360;2023-09-30T13:34:44;25.90;99.90
20125;DHT22;10223;50.862;4.360;2023-09-30T13:37:11;25.80;99.90
20125;DHT22;10223;50.862;4.360;2023-09-30T13:39:37;25.90;99.90
20125;DHT22;10223;50.862;4.360;2023-09-30T13:42:04;26.30;99.90
20125;DHT22;10223;50.862;4.360;2023-09-30T13:44:32;26.70;99.90
20125;DHT22;10223;50.862;4.360;2023-09-30T13:46:59;27.10;99.90
20125;DHT22;10223;50.862;4.360;2023-09-30T13:49:27;27.60;99.90
20125;DHT22;10223;50.862;4.360;2023-09-30T13:51:55;28.40;99.90
20125;DHT22;10223;50.862;4.360;2023-09-30T13:54:22;28.80;99.90
20125;DHT22;10223;50.862;4.360;2023-09-30T13:56:49;28.50;99.90
20125;DHT22;10223;50.862;4.360;2023-09-30T13:59:16;28.40;99.90
20125;DHT22;10223;50.862;4.360;2023-09-30T14:01:43;27.70;99.90
20125;DHT22;10223;50.862;4.360;2023-09-30T14:04:09;27.50;99.90
20125;DHT22;10223;50.862;4.360;2023-09-30T14:06:38;27.40;99.90
20125;DHT22;10223;50.862;4.360;2023-09-30T14:09:06;26.50;99.90
20125;DHT22;10223;50.862;4.360;2023-09-30T14:11:37;25.70;99.90
20125;DHT22;10223;50.862;4.360;2023-09-30T14:14:04;25.60;99.90
20125;DHT22;10223;50.862;4.360;2023-09-30T14:16:31;24.80;99.90
20125;DHT22;10223;50.862;4.360;2023-09-30T14:18:58;24.50;99.90
20125;DHT22;10223;50.862;4.360;2023-09-30T14:21:26;25.50;99.90
20125;DHT22;10223;50.862;4.360;2023-09-30T14:23:55;25.70;99.90
20125;DHT22;10223;50.862;4.360;2023-09-30T14:26:22;25.00;99.90
20125;DHT22;10223;50.862;4.360;2023-09-30T14:28:48;25.30;99.90
20125;DHT22;10223;50.862;4.360;2023-09-30T14:31:15;25.30;99.90
20125;DHT22;10223;50.862;4.360;2023-09-30T14:33:43;25.20;99.90
20125;DHT22;10223;50.862;4.360;2023-09-30T14:36:10;26.10;99.90
20125;DHT22;10223;50.862;4.360;2023-09-30T14:38:36;26.10;99.90
20125;DHT22;10223;50.862;4.360;2023-09-30T14:41:08;26.30;99.90
20125;DHT22;10223;50.862;4.360;2023-09-30T14:43:36;25.20;99.90
20125;DHT22;10223;50.862;4.360;2023-09-30T14:46:02;24.90;99.90
20125;DHT22;10223;50.862;4.360;2023-09-30T14:48:29;25.10;99.90
20125;DHT22;10223;50.862;4.360;2023-09-30T14:50:56;24.20;99.90
20125;DHT22;10223;50.862;4.360;2023-09-30T14:53:24;23.30;99.90
20125;DHT22;10223;50.862;4.360;2023-09-30T14:55:51;23.20;99.90
20125;DHT22;10223;50.862;4.360;2023-09-30T14:58:19;23.60;99.90
20125;DHT22;10223;50.862;4.360;2023-09-30T15:00:46;24.20;99.90
20125;DHT22;10223;50.862;4.360;2023-09-30T15:03:14;24.10;99.90
20125;DHT22;10223;50.862;4.360;2023-09-30T15:05:57;24.50;99.90
20125;DHT22;10223;50.862;4.360;2023-09-30T15:08:25;24.20;99.90
20125;DHT22;10223;50.862;4.360;2023-09-30T15:10:51;23.90;99.90
20125;DHT22;10223;50.862;4.360;2023-09-30T15:13:21;23.90;99.90
20125;DHT22;10223;50.862;4.360;2023-09-30T15:15:48;24.10;99.90
20125;DHT22;10223;50.862;4.360;2023-09-30T15:18:18;24.50;99.90
20125;DHT22;10223;50.862;4.360;2023-09-30T15:20:49;24.70;99.90
20125;DHT22;10223;50.862;4.360;2023-09-30T15:23:16;24.70;99.90
20125;DHT22;10223;50.862;4.360;2023-09-30T15:25:48;24.50;99.90
20125;DHT22;10223;50.862;4.360;2023-09-30T15:28:15;23.70;99.90
20125;DHT22;10223;50.862;4.360;2023-09-30T15:30:43;23.40;99.90
20125;DHT22;10223;50.862;4.360;2023-09-30T15:33:10;23.10;99.90
20125;DHT22;10223;50.862;4.360;2023-09-30T15:35:44;23.10;99.90
20125;DHT22;10223;50.862;4.360;2023-09-30T15:38:12;23.10;99.90
20125;DHT22;10223;50.862;4.360;2023-09-30T15:40:51;22.80;99.90